Time;durP1;ratioP1;P1;durP2;ratioP2;P2;SDS_P1;SDS_P2;PMS_P1;PMS_P2;Temp;Humidity;BMP_temperature;BMP_pressure;BME280_temperature;BME280_humidity;BME280_pressure;Samples;Min_cycle;Max_cycle;Signal;HPM_P1;HPM_P2
2022/09/22 00:04:18;;;;;;;;;;;;;;;;;;10456328;28;19925;-58
2022/09/22 00:09:20;;;;;;;;;;;;;;;;;;10457377;28;19925;-59
2022/09/22 00:14:22;;;;;;;;;;;;;;;;;;10456926;28;19979;-59
2022/09/22 00:19:24;;;;;;;;;;;;;;;;;;10455999;28;19987;-58
2022/09/22 00:24:26;;;;;;;;;;;;;;;;;;10455974;28;20478;-58
2022/09/22 00:29:28;;;;;;;;;;;;;;;;;;10456543;28;19925;-58
2022/09/22 00:34:30;;;;;;;;;;;;;;;;;;10457419;28;19925;-58
2022/09/22 00:39:32;;;;;;;;;;;;;;;;;;10456605;28;20331;-58
2022/09/22 00:44:34;;;;;;;;;;;;;;;;;;10453451;28;19979;-58
2022/09/22 00:49:37;;;;;;;;;;;;;;;;;;10456487;28;19932;-59
2022/09/22 00:54:39;;;;;;;;;;;;;;;;;;10456987;28;19925;-59
2022/09/22 00:59:41;;;;;;;;;;;;;;;;;;10456232;28;19986;-59
2022/09/22 01:04:43;;;;;;;;;;;;;;;;;;10461637;28;19979;-58
2022/09/22 01:09:45;;;;;;;;;;;;;;;;;;10464188;28;19979;-58
2022/09/22 01:14:47;;;;;;;;;;;;;;;;;;10463227;28;19925;-58
2022/09/22 01:19:49;;;;;;;;;;;;;;;;;;10463227;28;20338;-58
2022/09/22 01:24:51;;;;;;;;;;;;;;;;;;10462496;28;19924;-58
2022/09/22 01:29:53;;;;;;;;;;;;;;;;;;10468023;22;19925;-59
2022/09/22 01:34:55;;;;;;;;;;;;;;;;;;10422227;28;19925;-59
2022/09/22 01:39:57;;;;;;;;;;;;;;;;;;10422064;28;20016;-59
2022/09/22 01:44:59;;;;;;;;;;;;;;;;;;10420447;28;19979;-59
2022/09/22 01:50:01;;;;;;;;;;;;;;;;;;10422152;28;19925;-59
2022/09/22 01:55:03;;;;;;;;;;;;;;;;;;10421022;28;19925;-59
2022/09/22 02:00:05;;;;;;;;;;;;;;;;;;10420801;28;19925;-59
2022/09/22 02:05:07;;;;;;;;;;;;;;;;;;10418928;28;20296;-59
2022/09/22 02:10:09;;;;;;;;;;;;;;;;;;10421442;28;19925;-59
2022/09/22 02:20:33;;;;;;;;;;;;;;;;;;10419448;28;19925;-59
2022/09/22 02:25:35;;;;;;;;;;;;;;;;;;10420066;28;19925;-59
2022/09/22 02:30:37;;;;;;;;;;;;;;;;;;10419833;28;20404;-59
2022/09/22 02:35:39;;;;;;;;;;;;;;;;;;10419614;28;19979;-59
2022/09/22 02:40:42;;;;;;;;;;;;;;;;;;10419567;28;19925;-59
2022/09/22 02:45:44;;;;;;;;;;;;;;;;;;10418631;28;20265;-59
2022/09/22 02:50:46;;;;;;;;;;;;;;;;;;10419822;28;19925;-59
2022/09/22 02:55:48;;;;;;;;;;;;;;;;;;10418197;28;20330;-59
2022/09/22 03:00:50;;;;;;;;;;;;;;;;;;10418458;28;19972;-59
2022/09/22 03:05:52;;;;;;;;;;;;;;;;;;10417835;28;20372;-59
2022/09/22 03:10:54;;;;;;;;;;;;;;;;;;10417474;28;19925;-59
2022/09/22 03:15:57;;;;;;;;;;;;;;;;;;10418229;28;19925;-59
2022/09/22 03:20:59;;;;;;;;;;;;;;;;;;10418583;28;19925;-59
2022/09/22 03:26:01;;;;;;;;;;;;;;;;;;10414190;28;19998;-59
2022/09/22 03:31:03;;;;;;;;;;;;;;;;;;10417952;28;19933;-59
2022/09/22 03:36:05;;;;;;;;;;;;;;;;;;10417148;28;19925;-59
2022/09/22 03:41:07;;;;;;;;;;;;;;;;;;10417834;28;19929;-59
2022/09/22 03:46:09;;;;;;;;;;;;;;;;;;10414575;28;20295;-59
2022/09/22 03:51:11;;;;;;;;;;;;;;;;;;10376684;28;19926;-59
2022/09/22 03:56:13;;;;;;;;;;;;;;;;;;10406992;28;19925;-59
2022/09/22 04:01:15;;;;;;;;;;;;;;;;;;10416456;28;19987;-59
2022/09/22 04:06:18;;;;;;;;;;;;;;;;;;10414953;28;19928;-59
2022/09/22 04:11:20;;;;;;;;;;;;;;;;;;10416195;28;19925;-59
2022/09/22 04:16:22;;;;;;;;;;;;;;;;;;10416082;28;19925;-59
2022/09/22 04:21:24;;;;;;;;;;;;;;;;;;10415130;28;20291;-59
2022/09/22 04:26:26;;;;;;;;;;;;;;;;;;10415434;28;19924;-59
2022/09/22 04:31:28;;;;;;;;;;;;;;;;;;10415839;28;19925;-59
2022/09/22 04:36:30;;;;;;;;;;;;;;;;;;10414631;28;20335;-59
2022/09/22 04:41:32;;;;;;;;;;;;;;;;;;10416196;28;19979;-59
2022/09/22 04:46:34;;;;;;;;;;;;;;;;;;10415017;28;19979;-61
2022/09/22 04:51:36;;;;;;;;;;;;;;;;;;10373754;28;19980;-61
2022/09/22 04:56:38;;;;;;;;;;;;;;;;;;10389560;28;20274;-61
2022/09/22 05:01:41;;;;;;;;;;;;;;;;;;10375483;28;19975;-61
2022/09/22 05:06:43;;;;;;;;;;;;;;;;;;10413100;28;19929;-61
2022/09/22 05:11:47;;;;;;;;;;;;;;;;;;10414364;28;19926;-61
2022/09/22 05:16:49;;;;;;;;;;;;;;;;;;10415381;28;19925;-62
2022/09/22 05:21:53;;;;;;;;;;;;;;;;;;10414677;28;19925;-61
2022/09/22 05:26:55;;;;;;;;;;;;;;;;;;10414388;28;19929;-61
2022/09/22 05:31:57;;;;;;;;;;;;;;;;;;10413393;28;20406;-61
2022/09/22 05:36:59;;;;;;;;;;;;;;;;;;10373624;28;20331;-62
2022/09/22 05:42:01;;;;;;;;;;;;;;;;;;10374083;28;19952;-62
2022/09/22 05:47:06;;;;;;;;;;;;;;;;;;10411148;28;20410;-62
2022/09/22 05:52:08;;;;;;;;;;;;;;;;;;10422130;28;19983;-61
2022/09/22 05:57:10;;;;;;;;;;;;;;;;;;10421928;28;19925;-62
2022/09/22 06:02:12;;;;;;;;;;;;;;;;;;10418957;28;19925;-62
2022/09/22 06:07:26;;;;;;;;;;;;;;;;;;10420217;28;19925;-61
2022/09/22 06:12:28;;;;;;;;;;;;;;;;;;10421392;28;19929;-61
2022/09/22 06:17:30;;;;;;;;;;;;;;;;;;10421170;28;19925;-62
2022/09/22 06:22:34;;;;;;;;;;;;;;;;;;10419424;28;19972;-61
2022/09/22 06:27:36;;;;;;;;;;;;;;;;;;10419224;28;20361;-62
2022/09/22 06:32:38;;;;;;;;;;;;;;;;;;10418809;28;20331;-62
2022/09/22 06:37:40;;;;;;;;;;;;;;;;;;10418170;28;19929;-62
2022/09/22 06:42:42;;;;;;;;;;;;;;;;;;10418606;28;19925;-62
2022/09/22 06:47:45;;;;;;;;;;;;;;;;;;10418446;28;19925;-62
2022/09/22 06:52:50;;;;;;;;;;;;;;;;;;10419231;28;19925;-62
2022/09/22 06:57:52;;;;;;;;;;;;;;;;;;10420454;28;19983;-62
2022/09/22 07:02:54;;;;;;;;;;;;;;;;;;10417448;28;19952;-62
2022/09/22 07:07:56;;;;;;;;;;;;;;;;;;10417608;28;20315;-62
2022/09/22 07:12:59;;;;;;;;;;;;;;;;;;10419052;28;19983;-63
2022/09/22 07:18:01;;;;;;;;;;;;;;;;;;10418895;28;19971;-63
2022/09/22 07:23:04;;;;;;;;;;;;;;;;;;10416600;28;19929;-62
2022/09/22 07:28:12;;;;;;;;;;;;;;;;;;10417451;28;19925;-63
2022/09/22 07:33:16;;;;;;;;;;;;;;;;;;10414316;28;20284;-63
2022/09/22 07:38:19;;;;;;;;;;;;;;;;;;10417436;28;20339;-63
2022/09/22 07:43:21;;;;;;;;;;;;;;;;;;10417760;28;19925;-61
2022/09/22 07:48:36;;;;;;;;;;;;;;;;;;10416038;28;20380;-61
2022/09/22 07:53:38;;;;;;;;;;;;;;;;;;10417462;28;19933;-60
2022/09/22 07:58:41;;;;;;;;;;;;;;;;;;10416639;28;19925;-61
2022/09/22 08:03:46;;;;;;;;;;;;;;;;;;10415468;28;20430;-64
2022/09/22 08:08:51;;;;;;;;;;;;;;;;;;10414977;28;19932;-64
2022/09/22 08:13:54;;;;;;;;;;;;;;;;;;10422592;28;20443;-64
2022/09/22 08:18:56;;;;;;;;;;;;;;;;;;10415450;28;19925;-64
2022/09/22 08:23:59;;;;;;;;;;;;;;;;;;10415780;28;20359;-65
2022/09/22 08:29:01;;;;;;;;;;;;;;;;;;10414976;28;19925;-65
2022/09/22 08:34:04;;;;;;;;;;;;;;;;;;10412642;28;19979;-65
2022/09/22 08:39:06;;;;;;;;;;;;;;;;;;10414908;28;19952;-65
2022/09/22 08:44:09;;;;;;;;;;;;;;;;;;10415547;28;19999;-65
2022/09/22 08:54:33;;;;;;;;;;;;;;;;;;10415278;28;19925;-65
2022/09/22 08:59:35;;;;;;;;;;;;;;;;;;10415205;28;19971;-66
2022/09/22 09:04:41;;;;;;;;;;;;;;;;;;10415018;28;19971;-66
2022/09/22 09:09:43;;;;;;;;;;;;;;;;;;10416250;28;19929;-66
2022/09/22 09:14:45;;;;;;;;;;;;;;;;;;10413703;28;19926;-66
2022/09/22 09:19:47;;;;;;;;;;;;;;;;;;10413615;28;19931;-66
2022/09/22 09:24:49;;;;;;;;;;;;;;;;;;10420205;28;19925;-66
2022/09/22 09:30:13;;;;;;;;;;;;;;;;;;10422176;28;19984;-66
2022/09/22 09:35:15;;;;;;;;;;;;;;;;;;10422892;28;19925;-67
2022/09/22 09:40:17;;;;;;;;;;;;;;;;;;10422539;28;19975;-66
2022/09/22 09:45:19;;;;;;;;;;;;;;;;;;10422519;28;19925;-66
2022/09/22 09:50:21;;;;;;;;;;;;;;;;;;10421595;28;20257;-67
2022/09/22 09:55:27;;;;;;;;;;;;;;;;;;10421399;28;19925;-67
2022/09/22 10:00:32;;;;;;;;;;;;;;;;;;10421150;28;19985;-66
2022/09/22 10:05:36;;;;;;;;;;;;;;;;;;10421731;28;19932;-67
2022/09/22 10:10:40;;;;;;;;;;;;;;;;;;10421529;28;19930;-66
2022/09/22 10:15:42;;;;;;;;;;;;;;;;;;10421603;28;20047;-66
2022/09/22 10:20:44;;;;;;;;;;;;;;;;;;10420418;28;20261;-66
2022/09/22 10:25:47;;;;;;;;;;;;;;;;;;10414794;28;19926;-66
2022/09/22 10:30:51;;;;;;;;;;;;;;;;;;10384091;28;19982;-66
2022/09/22 10:35:54;;;;;;;;;;;;;;;;;;10419698;28;20365;-66
2022/09/22 10:40:56;;;;;;;;;;;;;;;;;;10419675;28;20439;-65
2022/09/22 10:45:59;;;;;;;;;;;;;;;;;;10418625;28;20375;-66
2022/09/22 10:51:01;;;;;;;;;;;;;;;;;;10419988;28;19925;-66
2022/09/22 10:56:05;;;;;;;;;;;;;;;;;;10419794;28;19925;-66
2022/09/22 11:01:08;;;;;;;;;;;;;;;;;;10417252;28;19925;-65
2022/09/22 11:16:52;;;;;;;;;;;;;;;;;;10417916;28;19971;-63
2022/09/22 11:21:54;;;;;;;;;;;;;;;;;;10415653;28;19925;-63
2022/09/22 11:26:56;;;;;;;;;;;;;;;;;;10416762;28;20269;-63
2022/09/22 11:31:58;;;;;;;;;;;;;;;;;;10417522;28;19933;-63
2022/09/22 11:37:24;;;;;;;;;;;;;;;;;;10418148;28;19929;-63
2022/09/22 11:42:23;;;;;;;;;;;;;;;;;;10417190;28;19925;-63
2022/09/22 11:47:26;;;;;;;;;;;;;;;;;;10417112;28;19936;-62
2022/09/22 11:52:28;;;;;;;;;;;;;;;;;;10416980;28;19925;-62
2022/09/22 11:57:30;;;;;;;;;;;;;;;;;;10417363;28;19925;-63
2022/09/22 12:02:33;;;;;;;;;;;;;;;;;;10416543;28;20334;-63
2022/09/22 12:07:35;;;;;;;;;;;;;;;;;;10415866;28;20003;-62
2022/09/22 12:12:37;;;;;;;;;;;;;;;;;;10416274;28;19978;-62
2022/09/22 12:17:40;;;;;;;;;;;;;;;;;;10416752;28;19951;-62
2022/09/22 12:22:42;;;;;;;;;;;;;;;;;;10416109;28;20258;-62
2022/09/22 12:27:44;;;;;;;;;;;;;;;;;;10416629;28;19929;-62
2022/09/22 12:32:46;;;;;;;;;;;;;;;;;;10415905;28;20372;-62
2022/09/22 12:37:49;;;;;;;;;;;;;;;;;;10415594;28;19929;-62
2022/09/22 12:42:51;;;;;;;;;;;;;;;;;;10416134;28;19987;-62
2022/09/22 12:47:54;;;;;;;;;;;;;;;;;;10416028;28;19929;-62
2022/09/22 12:52:56;;;;;;;;;;;;;;;;;;10416016;28;19975;-63
2022/09/22 12:57:58;;;;;;;;;;;;;;;;;;10419104;28;19951;-62
2022/09/22 13:03:00;;;;;;;;;;;;;;;;;;10423502;28;19991;-62
2022/09/22 13:08:02;;;;;;;;;;;;;;;;;;10422844;28;19933;-62
2022/09/22 13:13:04;;;;;;;;;;;;;;;;;;10420852;28;19925;-62
2022/09/22 13:18:06;;;;;;;;;;;;;;;;;;10417111;28;19925;-62
2022/09/22 13:23:10;;;;;;;;;;;;;;;;;;10419926;28;19937;-62
2022/09/22 13:28:12;;;;;;;;;;;;;;;;;;10419548;28;20332;-62
2022/09/22 13:33:14;;;;;;;;;;;;;;;;;;10419164;28;19929;-62
2022/09/22 13:38:17;;;;;;;;;;;;;;;;;;10417224;28;20357;-62
2022/09/22 13:43:19;;;;;;;;;;;;;;;;;;10421458;28;19976;-62
2022/09/22 13:48:21;;;;;;;;;;;;;;;;;;10434479;22;19932;-60
2022/09/22 13:53:23;;;;;;;;;;;;;;;;;;10421449;28;19983;-60
2022/09/22 13:58:26;;;;;;;;;;;;;;;;;;10421374;28;20339;-60
2022/09/22 14:03:28;;;;;;;;;;;;;;;;;;10420405;28;19972;-59
2022/09/22 14:08:30;;;;;;;;;;;;;;;;;;10420400;28;19925;-60
2022/09/22 14:13:32;;;;;;;;;;;;;;;;;;10417470;28;19925;-61
2022/09/22 14:18:34;;;;;;;;;;;;;;;;;;10403531;28;19933;-61
2022/09/22 14:23:36;;;;;;;;;;;;;;;;;;10420776;28;19925;-61
2022/09/22 14:28:38;;;;;;;;;;;;;;;;;;10419586;28;20326;-61
2022/09/22 14:33:42;;;;;;;;;;;;;;;;;;10417637;28;19987;-61
2022/09/22 14:38:44;;;;;;;;;;;;;;;;;;10415662;28;19929;-61
2022/09/22 14:43:56;;;;;;;;;;;;;;;;;;10419025;28;19975;-61
2022/09/22 14:48:58;;;;;;;;;;;;;;;;;;10416250;28;19925;-61
2022/09/22 14:54:02;;;;;;;;;;;;;;;;;;10418632;28;20380;-61
2022/09/22 15:02:30;;;;;;;;;;;;;;;;;;10413412;28;19983;-60
2022/09/22 15:04:26;;;;;;;;;;;;;;;;;;10416945;28;19949;-61
2022/09/22 15:09:28;;;;;;;;;;;;;;;;;;10416757;28;19925;-60
2022/09/22 15:14:30;;;;;;;;;;;;;;;;;;10416766;28;19926;-60
2022/09/22 15:19:34;;;;;;;;;;;;;;;;;;10410074;28;20438;-61
2022/09/22 15:24:38;;;;;;;;;;;;;;;;;;10416826;28;19925;-61
2022/09/22 15:29:40;;;;;;;;;;;;;;;;;;10410645;28;19937;-61
2022/09/22 15:34:43;;;;;;;;;;;;;;;;;;10408940;28;19925;-61
2022/09/22 15:39:45;;;;;;;;;;;;;;;;;;10414634;28;20364;-61
2022/09/22 15:44:49;;;;;;;;;;;;;;;;;;10411795;28;19973;-61
2022/09/22 15:49:52;;;;;;;;;;;;;;;;;;10417774;28;19975;-61
2022/09/22 15:54:54;;;;;;;;;;;;;;;;;;10416968;28;19933;-61
2022/09/22 15:59:56;;;;;;;;;;;;;;;;;;10408860;28;20430;-61
2022/09/22 16:04:58;;;;;;;;;;;;;;;;;;10410160;28;19926;-61
2022/09/22 16:10:01;;;;;;;;;;;;;;;;;;10415818;28;19983;-61
2022/09/22 16:15:03;;;;;;;;;;;;;;;;;;10438940;28;19926;-61
2022/09/22 16:20:05;;;;;;;;;;;;;;;;;;10416090;28;19983;-61
2022/09/22 16:25:08;;;;;;;;;;;;;;;;;;10414622;28;19929;-61
2022/09/22 16:30:10;;;;;;;;;;;;;;;;;;10414890;28;20292;-61
2022/09/22 16:35:12;;;;;;;;;;;;;;;;;;10419888;28;19929;-60
2022/09/22 16:40:15;;;;;;;;;;;;;;;;;;10415803;28;19929;-60
2022/09/22 16:46:25;;;;;;;;;;;;;;;;;;10415677;28;19925;-60
2022/09/22 16:50:39;;;;;;;;;;;;;;;;;;10414199;28;19929;-60
2022/09/22 16:55:41;;;;;;;;;;;;;;;;;;10415981;28;19979;-60
2022/09/22 17:00:43;;;;;;;;;;;;;;;;;;10415750;28;19925;-60
2022/09/22 17:05:45;;;;;;;;;;;;;;;;;;10413035;28;19932;-60
2022/09/22 17:10:48;;;;;;;;;;;;;;;;;;10414969;28;20265;-61
2022/09/22 17:15:50;;;;;;;;;;;;;;;;;;10415519;28;19925;-60
2022/09/22 17:20:52;;;;;;;;;;;;;;;;;;10412776;28;20296;-60
2022/09/22 17:25:57;;;;;;;;;;;;;;;;;;10397768;28;19929;-61
2022/09/22 17:30:59;;;;;;;;;;;;;;;;;;10413439;28;19951;-60
2022/09/22 17:36:01;;;;;;;;;;;;;;;;;;10411149;28;19925;-60
2022/09/22 17:41:06;;;;;;;;;;;;;;;;;;10413517;28;20334;-60
2022/09/22 17:46:08;;;;;;;;;;;;;;;;;;10419534;28;19952;-60
2022/09/22 17:56:31;;;;;;;;;;;;;;;;;;10421544;28;19929;-60
2022/09/22 18:01:33;;;;;;;;;;;;;;;;;;10422279;28;19925;-60
2022/09/22 18:06:35;;;;;;;;;;;;;;;;;;10421321;28;19929;-60
2022/09/22 18:11:41;;;;;;;;;;;;;;;;;;10421608;28;19951;-60
2022/09/22 18:16:43;;;;;;;;;;;;;;;;;;10421514;28;19925;-60
2022/09/22 18:21:45;;;;;;;;;;;;;;;;;;10418282;28;20339;-60
2022/09/22 18:26:47;;;;;;;;;;;;;;;;;;10417081;28;19925;-60
2022/09/22 18:31:49;;;;;;;;;;;;;;;;;;10415354;28;19971;-60
2022/09/22 18:36:52;;;;;;;;;;;;;;;;;;10446984;28;20372;-60
2022/09/22 18:41:54;;;;;;;;;;;;;;;;;;10426299;28;19925;-60
2022/09/22 18:47:00;;;;;;;;;;;;;;;;;;10419661;28;19929;-60
2022/09/22 18:52:02;;;;;;;;;;;;;;;;;;10425353;28;20453;-60
2022/09/22 18:57:05;;;;;;;;;;;;;;;;;;10419104;28;19925;-60
2022/09/22 19:02:09;;;;;;;;;;;;;;;;;;10418899;28;20417;-60
2022/09/22 19:12:38;;;;;;;;;;;;;;;;;;10406632;28;19979;-59
2022/09/22 19:17:42;;;;;;;;;;;;;;;;;;10415483;28;19975;-60
2022/09/22 19:22:45;;;;;;;;;;;;;;;;;;10414995;28;19980;-60
2022/09/22 19:27:47;;;;;;;;;;;;;;;;;;10415011;28;19931;-60
2022/09/22 19:32:50;;;;;;;;;;;;;;;;;;10411579;28;19925;-59
2022/09/22 19:37:52;;;;;;;;;;;;;;;;;;10402097;28;20014;-59
2022/09/22 19:42:54;;;;;;;;;;;;;;;;;;10400016;28;19929;-59
2022/09/22 19:47:57;;;;;;;;;;;;;;;;;;10412260;28;20016;-59
2022/09/22 19:52:59;;;;;;;;;;;;;;;;;;10389637;28;19929;-59
2022/09/22 19:58:01;;;;;;;;;;;;;;;;;;10407188;28;19929;-59
2022/09/22 20:03:03;;;;;;;;;;;;;;;;;;10412727;28;19980;-59
2022/09/22 20:08:05;;;;;;;;;;;;;;;;;;10413694;28;19932;-59
2022/09/22 20:14:18;;;;;;;;;;;;;;;;;;10413746;28;20331;-60
2022/09/22 20:18:30;;;;;;;;;;;;;;;;;;10407795;28;19925;-59
2022/09/22 20:23:32;;;;;;;;;;;;;;;;;;10412793;28;20034;-60
2022/09/22 20:28:34;;;;;;;;;;;;;;;;;;10418402;28;19925;-59
2022/09/22 20:33:36;;;;;;;;;;;;;;;;;;10414157;28;19929;-60
2022/09/22 20:38:38;;;;;;;;;;;;;;;;;;10409718;28;20430;-59
2022/09/22 20:43:40;;;;;;;;;;;;;;;;;;10408180;28;19964;-60
2022/09/22 20:48:42;;;;;;;;;;;;;;;;;;10411041;28;20376;-59
2022/09/22 20:53:45;;;;;;;;;;;;;;;;;;10411481;28;19937;-59
2022/09/22 20:58:48;;;;;;;;;;;;;;;;;;10410654;28;19929;-59
2022/09/22 21:03:50;;;;;;;;;;;;;;;;;;10415708;28;19975;-59
2022/09/22 21:14:13;;;;;;;;;;;;;;;;;;10414817;28;19925;-69
2022/09/22 21:19:15;;;;;;;;;;;;;;;;;;10415849;28;19925;-59
2022/09/22 21:24:17;;;;;;;;;;;;;;;;;;10422776;28;19976;-59
2022/09/22 21:29:20;;;;;;;;;;;;;;;;;;10423301;28;19925;-59
2022/09/22 21:34:22;;;;;;;;;;;;;;;;;;10422111;28;19986;-59
2022/09/22 21:39:24;;;;;;;;;;;;;;;;;;10421520;28;19929;-59
2022/09/22 21:44:26;;;;;;;;;;;;;;;;;;10421627;28;19929;-59
2022/09/22 21:49:28;;;;;;;;;;;;;;;;;;10421065;28;19980;-60
2022/09/22 21:54:30;;;;;;;;;;;;;;;;;;10422339;28;19979;-60
2022/09/22 21:59:32;;;;;;;;;;;;;;;;;;10403086;28;19975;-60
2022/09/22 22:04:34;;;;;;;;;;;;;;;;;;10403249;28;20044;-59
2022/09/22 22:09:36;;;;;;;;;;;;;;;;;;10421992;28;19961;-60
2022/09/22 22:14:38;;;;;;;;;;;;;;;;;;10419902;28;19972;-60
2022/09/22 22:19:41;;;;;;;;;;;;;;;;;;10421370;28;19971;-60
2022/09/22 22:24:43;;;;;;;;;;;;;;;;;;10420392;28;19925;-60
2022/09/22 22:29:45;;;;;;;;;;;;;;;;;;10420504;28;19972;-60
2022/09/22 22:34:48;;;;;;;;;;;;;;;;;;10420783;28;19925;-59
2022/09/22 22:39:50;;;;;;;;;;;;;;;;;;10418957;28;19925;-59
2022/09/22 22:44:52;;;;;;;;;;;;;;;;;;10419247;28;19929;-60
2022/09/22 22:49:54;;;;;;;;;;;;;;;;;;10419918;28;19971;-59
2022/09/22 22:54:56;;;;;;;;;;;;;;;;;;10419973;28;19936;-59
2022/09/22 22:59:58;;;;;;;;;;;;;;;;;;10418277;28;19925;-59
2022/09/22 23:05:01;;;;;;;;;;;;;;;;;;10417923;28;20291;-59
2022/09/22 23:10:06;;;;;;;;;;;;;;;;;;10417815;28;20368;-59
2022/09/22 23:15:08;;;;;;;;;;;;;;;;;;10418544;28;19972;-59
2022/09/22 23:20:11;;;;;;;;;;;;;;;;;;10417506;28;19925;-59
2022/09/22 23:25:13;;;;;;;;;;;;;;;;;;10417130;28;20335;-59
2022/09/22 23:30:15;;;;;;;;;;;;;;;;;;10417757;28;19994;-60
2022/09/22 23:35:17;;;;;;;;;;;;;;;;;;10416577;28;19979;-59
2022/09/22 23:40:20;;;;;;;;;;;;;;;;;;10413790;28;19980;-59
2022/09/22 23:45:22;;;;;;;;;;;;;;;;;;10416106;28;19932;-59
2022/09/22 23:50:24;;;;;;;;;;;;;;;;;;10417838;28;19929;-59
2022/09/22 23:55:26;;;;;;;;;;;;;;;;;;10415158;28;20380;-59
